sensor_id;sensor_type;location;lat;lon;timestamp;P1;durP1;ratioP1;P2;durP2;ratioP2
18267;SDS011;9260;49.998;19.880;2022-09-03T00:04:24;231.90;;;104.23;;
18267;SDS011;9260;49.998;19.880;2022-09-03T00:14:39;239.20;;;111.33;;
18267;SDS011;9260;49.998;19.880;2022-09-03T00:24:48;223.83;;;88.63;;
18267;SDS011;9260;49.998;19.880;2022-09-03T00:34:56;223.63;;;84.43;;
18267;SDS011;9260;49.998;19.880;2022-09-03T00:45:10;228.93;;;93.67;;
18267;SDS011;9260;49.998;19.880;2022-09-03T00:55:30;224.50;;;87.10;;
18267;SDS011;9260;49.998;19.880;2022-09-03T01:05:54;227.10;;;87.13;;
18267;SDS011;9260;49.998;19.880;2022-09-03T01:16:15;233.33;;;97.60;;
18267;SDS011;9260;49.998;19.880;2022-09-03T01:26:33;228.57;;;96.83;;
18267;SDS011;9260;49.998;19.880;2022-09-03T01:36:56;228.97;;;96.00;;
18267;SDS011;9260;49.998;19.880;2022-09-03T01:47:13;230.60;;;93.80;;
18267;SDS011;9260;49.998;19.880;2022-09-03T01:57:44;225.63;;;95.67;;
18267;SDS011;9260;49.998;19.880;2022-09-03T02:07:57;220.80;;;85.17;;
18267;SDS011;9260;49.998;19.880;2022-09-03T02:18:05;229.17;;;101.00;;
18267;SDS011;9260;49.998;19.880;2022-09-03T02:28:15;227.07;;;94.83;;
18267;SDS011;9260;49.998;19.880;2022-09-03T02:38:22;226.93;;;90.40;;
18267;SDS011;9260;49.998;19.880;2022-09-03T02:48:27;220.70;;;83.17;;
18267;SDS011;9260;49.998;19.880;2022-09-03T02:58:33;224.50;;;83.13;;
18267;SDS011;9260;49.998;19.880;2022-09-03T03:08:37;222.03;;;89.30;;
18267;SDS011;9260;49.998;19.880;2022-09-03T03:18:42;230.40;;;96.07;;
18267;SDS011;9260;49.998;19.880;2022-09-03T03:28:47;220.40;;;94.07;;
18267;SDS011;9260;49.998;19.880;2022-09-03T03:38:54;227.47;;;104.03;;
18267;SDS011;9260;49.998;19.880;2022-09-03T03:48:59;225.87;;;98.80;;
18267;SDS011;9260;49.998;19.880;2022-09-03T03:59:04;227.50;;;98.50;;
18267;SDS011;9260;49.998;19.880;2022-09-03T04:09:08;223.13;;;90.10;;
18267;SDS011;9260;49.998;19.880;2022-09-03T04:19:13;222.17;;;93.20;;
18267;SDS011;9260;49.998;19.880;2022-09-03T04:29:17;227.07;;;95.77;;
18267;SDS011;9260;49.998;19.880;2022-09-03T04:39:24;233.27;;;107.10;;
18267;SDS011;9260;49.998;19.880;2022-09-03T04:49:28;230.27;;;100.57;;
18267;SDS011;9260;49.998;19.880;2022-09-03T04:59:33;232.37;;;95.83;;
18267;SDS011;9260;49.998;19.880;2022-09-03T05:09:37;227.33;;;88.07;;
18267;SDS011;9260;49.998;19.880;2022-09-03T05:19:42;233.83;;;106.60;;
18267;SDS011;9260;49.998;19.880;2022-09-03T05:29:46;236.27;;;109.73;;
18267;SDS011;9260;49.998;19.880;2022-09-03T05:39:51;227.97;;;95.80;;
18267;SDS011;9260;49.998;19.880;2022-09-03T05:49:55;234.57;;;105.43;;
18267;SDS011;9260;49.998;19.880;2022-09-03T06:00:01;232.67;;;100.13;;
18267;SDS011;9260;49.998;19.880;2022-09-03T06:10:12;237.97;;;104.63;;
18267;SDS011;9260;49.998;19.880;2022-09-03T06:20:18;237.07;;;98.37;;
18267;SDS011;9260;49.998;19.880;2022-09-03T06:30:22;229.20;;;95.60;;
18267;SDS011;9260;49.998;19.880;2022-09-03T06:40:28;236.73;;;102.93;;
18267;SDS011;9260;49.998;19.880;2022-09-03T06:50:32;235.30;;;109.90;;
18267;SDS011;9260;49.998;19.880;2022-09-03T07:00:37;245.13;;;111.90;;
18267;SDS011;9260;49.998;19.880;2022-09-03T07:10:44;238.07;;;106.13;;
18267;SDS011;9260;49.998;19.880;2022-09-03T07:20:51;236.20;;;103.60;;
18267;SDS011;9260;49.998;19.880;2022-09-03T07:30:59;237.63;;;116.33;;
18267;SDS011;9260;49.998;19.880;2022-09-03T07:41:07;226.10;;;99.60;;
18267;SDS011;9260;49.998;19.880;2022-09-03T07:51:18;230.70;;;104.53;;
18267;SDS011;9260;49.998;19.880;2022-09-03T08:01:26;231.27;;;111.63;;
18267;SDS011;9260;49.998;19.880;2022-09-03T08:11:32;233.47;;;107.00;;
18267;SDS011;9260;49.998;19.880;2022-09-03T08:21:40;232.67;;;115.07;;
18267;SDS011;9260;49.998;19.880;2022-09-03T08:31:44;234.13;;;111.10;;
18267;SDS011;9260;49.998;19.880;2022-09-03T08:52:33;243.70;;;130.90;;
18267;SDS011;9260;49.998;19.880;2022-09-03T09:02:50;223.53;;;109.00;;
18267;SDS011;9260;49.998;19.880;2022-09-03T09:13:08;230.60;;;113.93;;
18267;SDS011;9260;49.998;19.880;2022-09-03T09:23:25;231.27;;;122.47;;
18267;SDS011;9260;49.998;19.880;2022-09-03T09:33:33;233.03;;;124.47;;
18267;SDS011;9260;49.998;19.880;2022-09-03T09:43:38;224.90;;;109.47;;
18267;SDS011;9260;49.998;19.880;2022-09-03T09:53:43;225.10;;;111.67;;
18267;SDS011;9260;49.998;19.880;2022-09-03T10:03:50;222.93;;;112.73;;
18267;SDS011;9260;49.998;19.880;2022-09-03T10:13:56;230.20;;;112.70;;
18267;SDS011;9260;49.998;19.880;2022-09-03T10:24:03;224.47;;;115.37;;
18267;SDS011;9260;49.998;19.880;2022-09-03T10:34:21;227.50;;;113.63;;
18267;SDS011;9260;49.998;19.880;2022-09-03T10:55:13;230.77;;;111.20;;
18267;SDS011;9260;49.998;19.880;2022-09-03T11:05:28;228.67;;;110.80;;
18267;SDS011;9260;49.998;19.880;2022-09-03T11:15:40;233.93;;;110.20;;
18267;SDS011;9260;49.998;19.880;2022-09-03T11:25:53;228.03;;;113.03;;
18267;SDS011;9260;49.998;19.880;2022-09-03T11:36:00;229.27;;;116.57;;
18267;SDS011;9260;49.998;19.880;2022-09-03T11:46:10;228.60;;;116.43;;
18267;SDS011;9260;49.998;19.880;2022-09-03T11:56:29;229.73;;;112.63;;
18267;SDS011;9260;49.998;19.880;2022-09-03T12:06:42;254.38;;;125.28;;
18267;SDS011;9260;49.998;19.880;2022-09-03T12:17:06;245.45;;;152.13;;
18267;SDS011;9260;49.998;19.880;2022-09-03T12:27:22;229.82;;;164.93;;
18267;SDS011;9260;49.998;19.880;2022-09-03T12:37:31;212.70;;;161.77;;
18267;SDS011;9260;49.998;19.880;2022-09-03T12:47:58;210.68;;;157.75;;
18267;SDS011;9260;49.998;19.880;2022-09-03T12:58:07;214.52;;;147.75;;
18267;SDS011;9260;49.998;19.880;2022-09-03T13:08:21;222.35;;;140.80;;
18267;SDS011;9260;49.998;19.880;2022-09-03T13:18:30;226.13;;;130.93;;
18267;SDS011;9260;49.998;19.880;2022-09-03T13:28:50;236.13;;;128.10;;
18267;SDS011;9260;49.998;19.880;2022-09-03T13:39:10;235.93;;;123.78;;
18267;SDS011;9260;49.998;19.880;2022-09-03T13:49:29;241.80;;;126.10;;
18267;SDS011;9260;49.998;19.880;2022-09-03T14:00:11;245.03;;;123.57;;
18267;SDS011;9260;49.998;19.880;2022-09-03T14:10:29;235.33;;;118.67;;
18267;SDS011;9260;49.998;19.880;2022-09-03T14:20:51;236.60;;;120.10;;
18267;SDS011;9260;49.998;19.880;2022-09-03T14:31:04;240.23;;;119.47;;
18267;SDS011;9260;49.998;19.880;2022-09-03T14:52:09;238.80;;;127.40;;
18267;SDS011;9260;49.998;19.880;2022-09-03T15:02:40;236.60;;;122.37;;
18267;SDS011;9260;49.998;19.880;2022-09-03T15:13:09;235.73;;;118.33;;
18267;SDS011;9260;49.998;19.880;2022-09-03T15:23:22;237.90;;;116.53;;
18267;SDS011;9260;49.998;19.880;2022-09-03T15:33:36;233.93;;;119.93;;
18267;SDS011;9260;49.998;19.880;2022-09-03T15:43:50;243.80;;;123.87;;
18267;SDS011;9260;49.998;19.880;2022-09-03T15:54:06;237.90;;;120.30;;
18267;SDS011;9260;49.998;19.880;2022-09-03T16:04:29;237.37;;;116.17;;
18267;SDS011;9260;49.998;19.880;2022-09-03T16:14:48;249.97;;;117.10;;
18267;SDS011;9260;49.998;19.880;2022-09-03T16:25:01;240.33;;;118.03;;
18267;SDS011;9260;49.998;19.880;2022-09-03T16:35:13;240.93;;;120.80;;
18267;SDS011;9260;49.998;19.880;2022-09-03T16:45:29;234.33;;;112.07;;
18267;SDS011;9260;49.998;19.880;2022-09-03T16:55:54;233.50;;;110.70;;
18267;SDS011;9260;49.998;19.880;2022-09-03T17:06:15;236.80;;;108.50;;
18267;SDS011;9260;49.998;19.880;2022-09-03T17:16:39;234.03;;;107.73;;
18267;SDS011;9260;49.998;19.880;2022-09-03T17:27:00;237.73;;;107.13;;
18267;SDS011;9260;49.998;19.880;2022-09-03T17:37:20;235.60;;;106.50;;
18267;SDS011;9260;49.998;19.880;2022-09-03T17:58:18;240.80;;;110.93;;
18267;SDS011;9260;49.998;19.880;2022-09-03T18:08:29;240.47;;;111.73;;
18267;SDS011;9260;49.998;19.880;2022-09-03T18:18:44;237.00;;;106.67;;
18267;SDS011;9260;49.998;19.880;2022-09-03T18:28:53;248.70;;;113.83;;
18267;SDS011;9260;49.998;19.880;2022-09-03T18:39:22;240.77;;;108.67;;
18267;SDS011;9260;49.998;19.880;2022-09-03T18:49:47;237.53;;;105.23;;
18267;SDS011;9260;49.998;19.880;2022-09-03T19:00:20;237.90;;;100.47;;
18267;SDS011;9260;49.998;19.880;2022-09-03T19:10:42;243.60;;;114.90;;
18267;SDS011;9260;49.998;19.880;2022-09-03T19:21:16;237.83;;;106.57;;
18267;SDS011;9260;49.998;19.880;2022-09-03T19:31:48;243.77;;;110.53;;
18267;SDS011;9260;49.998;19.880;2022-09-03T19:42:21;239.90;;;105.63;;
18267;SDS011;9260;49.998;19.880;2022-09-03T19:52:51;238.40;;;105.13;;
18267;SDS011;9260;49.998;19.880;2022-09-03T20:03:16;236.50;;;103.43;;
18267;SDS011;9260;49.998;19.880;2022-09-03T20:13:38;237.33;;;103.50;;
18267;SDS011;9260;49.998;19.880;2022-09-03T20:23:58;239.77;;;108.77;;
18267;SDS011;9260;49.998;19.880;2022-09-03T20:34:24;237.90;;;107.87;;
18267;SDS011;9260;49.998;19.880;2022-09-03T20:44:45;239.83;;;110.47;;
18267;SDS011;9260;49.998;19.880;2022-09-03T20:55:00;236.47;;;103.07;;
18267;SDS011;9260;49.998;19.880;2022-09-03T21:05:16;234.73;;;99.53;;
18267;SDS011;9260;49.998;19.880;2022-09-03T21:15:27;241.37;;;108.73;;
18267;SDS011;9260;49.998;19.880;2022-09-03T21:25:47;234.40;;;99.13;;
18267;SDS011;9260;49.998;19.880;2022-09-03T21:36:02;234.37;;;101.87;;
18267;SDS011;9260;49.998;19.880;2022-09-03T21:46:17;238.23;;;104.20;;
18267;SDS011;9260;49.998;19.880;2022-09-03T21:56:43;229.20;;;99.27;;
18267;SDS011;9260;49.998;19.880;2022-09-03T22:07:13;233.07;;;100.20;;
18267;SDS011;9260;49.998;19.880;2022-09-03T22:17:29;231.97;;;103.67;;
18267;SDS011;9260;49.998;19.880;2022-09-03T22:27:49;232.77;;;98.77;;
18267;SDS011;9260;49.998;19.880;2022-09-03T22:49:04;231.53;;;100.80;;
18267;SDS011;9260;49.998;19.880;2022-09-03T22:59:22;234.60;;;98.63;;
18267;SDS011;9260;49.998;19.880;2022-09-03T23:09:32;231.00;;;97.43;;
18267;SDS011;9260;49.998;19.880;2022-09-03T23:19:41;231.67;;;98.57;;
18267;SDS011;9260;49.998;19.880;2022-09-03T23:29:50;232.33;;;101.23;;
18267;SDS011;9260;49.998;19.880;2022-09-03T23:40:09;231.67;;;101.80;;
18267;SDS011;9260;49.998;19.880;2022-09-03T23:50:50;235.67;;;105.30;;
